Time;durP1;ratioP1;P1;durP2;ratioP2;P2;SDS_P1;SDS_P2;PMS_P1;PMS_P2;Temp;Humidity;BMP_temperature;BMP_pressure;BME280_temperature;BME280_humidity;BME280_pressure;Samples;Min_cycle;Max_cycle;Signal;HPM_P1;HPM_P2
2023/05/09 00:00:12;;;;;;;42.03;28.73;;;16.60;99.90;;;;;;5012511;28;20030;-84
2023/05/09 00:02:38;;;;;;;41.28;28.40;;;16.60;99.90;;;;;;5011793;28;20057;-84
2023/05/09 00:05:06;;;;;;;39.90;27.00;;;16.40;99.90;;;;;;5012720;28;20433;-84
2023/05/09 00:07:32;;;;;;;37.25;25.77;;;16.40;99.90;;;;;;5012464;28;20034;-84
2023/05/09 00:09:59;;;;;;;38.42;27.00;;;16.30;99.90;;;;;;5011947;28;20026;-84
2023/05/09 00:12:26;;;;;;;44.40;27.30;;;16.40;99.90;;;;;;5012532;28;20026;-84
2023/05/09 00:14:53;;;;;;;36.55;25.38;;;16.40;99.90;;;;;;5012290;28;20490;-84
2023/05/09 00:17:21;;;;;;;37.63;26.90;;;16.40;99.90;;;;;;5011640;28;20494;-84
2023/05/09 00:19:51;;;;;;;37.25;26.38;;;16.40;99.90;;;;;;5012239;28;20041;-84
2023/05/09 00:22:20;;;;;;;37.05;24.73;;;16.40;99.90;;;;;;5012038;28;20096;-84
2023/05/09 00:24:46;;;;;;;38.38;25.63;;;16.40;99.90;;;;;;5012202;28;20033;-83
2023/05/09 00:27:12;;;;;;;34.97;25.77;;;16.40;99.90;;;;;;5012205;28;20901;-84
2023/05/09 00:29:37;;;;;;;28.92;23.95;;;16.40;99.90;;;;;;5011311;28;20058;-84
2023/05/09 00:32:03;;;;;;;44.72;24.67;;;16.40;99.90;;;;;;5012102;28;20026;-84
2023/05/09 00:34:28;;;;;;;36.50;25.27;;;16.40;99.90;;;;;;5012502;28;20033;-84
2023/05/09 00:36:54;;;;;;;32.85;24.42;;;16.50;99.90;;;;;;5012048;28;20498;-84
2023/05/09 00:39:20;;;;;;;34.17;23.90;;;16.50;99.90;;;;;;5016068;28;20030;-84
2023/05/09 00:41:45;;;;;;;30.92;23.48;;;16.50;99.90;;;;;;5015801;28;20046;-84
2023/05/09 00:44:11;;;;;;;34.17;24.67;;;16.50;99.90;;;;;;5015385;28;20030;-84
2023/05/09 00:46:37;;;;;;;33.88;23.38;;;16.50;99.90;;;;;;5015650;28;20473;-84
2023/05/09 00:49:03;;;;;;;32.50;23.23;;;16.60;99.90;;;;;;5016200;28;20033;-84
2023/05/09 00:51:31;;;;;;;33.58;23.83;;;16.60;99.90;;;;;;5015230;28;20034;-84
2023/05/09 00:53:57;;;;;;;30.20;22.27;;;16.50;99.90;;;;;;5016035;28;20030;-84
2023/05/09 00:56:23;;;;;;;31.52;23.05;;;16.50;99.90;;;;;;5015978;28;20096;-84
2023/05/09 00:58:49;;;;;;;34.13;22.63;;;16.50;99.90;;;;;;5014849;28;20029;-84
2023/05/09 01:01:15;;;;;;;28.17;22.25;;;16.50;99.90;;;;;;5015835;28;20042;-84
2023/05/09 01:03:41;;;;;;;37.90;22.50;;;16.50;99.90;;;;;;5015459;28;20030;-84
2023/05/09 01:06:28;;;;;;;31.35;21.67;;;16.50;99.90;;;;;;5014801;28;20366;-83
2023/05/09 01:09:06;;;;;;;31.45;21.70;;;16.50;99.90;;;;;;5015219;28;20026;-84
2023/05/09 01:11:40;;;;;;;28.95;21.95;;;16.40;99.90;;;;;;5014624;28;20045;-83
2023/05/09 01:14:40;;;;;;;30.88;21.45;;;16.50;99.90;;;;;;5015428;28;20547;-83
2023/05/09 01:17:16;;;;;;;32.60;22.80;;;16.40;99.90;;;;;;5015672;28;20038;-83
2023/05/09 01:20:04;;;;;;;32.63;21.60;;;16.50;99.90;;;;;;5014340;28;20473;-84
2023/05/09 01:22:35;;;;;;;26.65;20.67;;;16.40;99.90;;;;;;5015345;28;20497;-84
2023/05/09 01:25:29;;;;;;;31.70;22.35;;;16.50;99.90;;;;;;5015568;28;20030;-84
2023/05/09 01:28:23;;;;;;;28.77;21.58;;;16.50;99.90;;;;;;5014906;28;20026;-83
2023/05/09 01:30:52;;;;;;;26.27;20.15;;;16.50;99.90;;;;;;5015138;28;20413;-84
2023/05/09 01:33:19;;;;;;;28.33;20.83;;;16.50;99.90;;;;;;5014473;28;20030;-84
2023/05/09 01:35:51;;;;;;;31.38;20.33;;;16.50;99.90;;;;;;5015023;28;20030;-83
2023/05/09 01:38:19;;;;;;;29.05;21.88;;;16.50;99.90;;;;;;5015242;28;20046;-84
2023/05/09 01:40:50;;;;;;;26.65;19.83;;;16.50;99.90;;;;;;5013768;28;20041;-83
2023/05/09 01:43:18;;;;;;;26.80;19.08;;;16.40;99.90;;;;;;5014672;28;20448;-84
2023/05/09 01:45:44;;;;;;;27.60;19.60;;;16.40;99.90;;;;;;5014659;28;20034;-83
2023/05/09 01:48:11;;;;;;;30.13;20.02;;;16.40;99.90;;;;;;5013463;28;20022;-83
2023/05/09 01:50:39;;;;;;;23.25;18.85;;;16.40;99.90;;;;;;5013806;28;20022;-84
2023/05/09 01:53:06;;;;;;;24.25;18.73;;;16.40;99.90;;;;;;5014616;28;20037;-84
2023/05/09 01:55:35;;;;;;;25.13;18.27;;;16.30;99.90;;;;;;5014067;28;20033;-84
2023/05/09 01:58:03;;;;;;;25.13;18.80;;;16.90;99.90;;;;;;5014761;28;20034;-83
2023/05/09 02:00:30;;;;;;;25.50;17.55;;;16.30;99.90;;;;;;5014589;28;20029;-83
2023/05/09 02:02:56;;;;;;;21.75;17.10;;;16.50;99.90;;;;;;5014415;28;20038;-83
2023/05/09 02:05:26;;;;;;;24.02;18.73;;;16.40;99.90;;;;;;5014466;28;20481;-84
2023/05/09 02:07:53;;;;;;;25.58;17.35;;;16.60;99.90;;;;;;5013689;28;20353;-84
2023/05/09 02:10:20;;;;;;;23.13;17.38;;;16.40;99.90;;;;;;5014703;28;20032;-84
2023/05/09 02:12:45;;;;;;;27.65;18.25;;;16.30;99.90;;;;;;5014364;28;20456;-83
2023/05/09 02:15:11;;;;;;;25.88;16.70;;;16.40;99.90;;;;;;5013751;28;20018;-84
2023/05/09 02:17:36;;;;;;;29.95;18.40;;;16.30;99.90;;;;;;5013903;28;20017;-84
2023/05/09 02:20:04;;;;;;;23.02;17.67;;;16.80;99.90;;;;;;5014004;28;20026;-84
2023/05/09 02:22:29;;;;;;;21.85;15.68;;;16.20;99.90;;;;;;5013582;28;20037;-84
2023/05/09 02:24:55;;;;;;;25.27;16.27;;;16.20;99.90;;;;;;5014122;28;20466;-83
2023/05/09 02:27:21;;;;;;;20.45;16.10;;;16.20;99.90;;;;;;5014118;28;20129;-84
2023/05/09 02:29:50;;;;;;;21.25;16.80;;;16.00;99.90;;;;;;5012941;28;20027;-84
2023/05/09 02:32:21;;;;;;;22.13;16.17;;;16.50;99.90;;;;;;5014068;28;20105;-83
2023/05/09 02:34:49;;;;;;;20.17;16.48;;;16.00;99.90;;;;;;5013518;28;20025;-84
2023/05/09 02:37:15;;;;;;;22.10;15.82;;;16.00;99.90;;;;;;5013420;28;20041;-84
2023/05/09 02:39:41;;;;;;;22.35;17.10;;;16.60;99.90;;;;;;5013773;28;20026;-84
2023/05/09 02:42:10;;;;;;;22.65;17.15;;;16.50;99.90;;;;;;5013784;28;20516;-84
2023/05/09 02:44:37;;;;;;;24.70;16.30;;;15.90;99.90;;;;;;5012719;28;20034;-83
2023/05/09 02:47:04;;;;;;;21.75;16.50;;;15.80;99.90;;;;;;5013774;28;20073;-84
2023/05/09 02:49:29;;;;;;;23.23;17.10;;;15.70;99.90;;;;;;5013646;28;20073;-84
2023/05/09 02:51:55;;;;;;;23.05;16.65;;;15.70;99.90;;;;;;5012845;28;20078;-83
2023/05/09 02:54:20;;;;;;;20.05;16.67;;;15.70;99.90;;;;;;5013914;28;20458;-84
2023/05/09 02:56:46;;;;;;;21.23;16.20;;;15.60;99.90;;;;;;5013209;28;20026;-84
2023/05/09 02:59:12;;;;;;;23.05;16.80;;;15.70;99.90;;;;;;5013323;28;20030;-83
2023/05/09 03:01:37;;;;;;;23.42;16.85;;;15.60;99.90;;;;;;5013098;28;20045;-83
2023/05/09 03:04:03;;;;;;;21.70;15.88;;;15.60;99.90;;;;;;5012952;28;20028;-84
2023/05/09 03:06:29;;;;;;;22.33;16.88;;;15.60;99.90;;;;;;5013661;28;20038;-83
2023/05/09 03:08:55;;;;;;;20.75;15.95;;;15.60;99.90;;;;;;5013028;28;20113;-83
2023/05/09 03:11:21;;;;;;;21.98;16.23;;;15.60;99.90;;;;;;5012823;28;20025;-83
2023/05/09 03:13:47;;;;;;;26.42;16.80;;;15.60;99.90;;;;;;5013056;28;20441;-84
2023/05/09 03:16:14;;;;;;;24.13;16.48;;;15.50;99.90;;;;;;5013454;28;20022;-83
2023/05/09 03:18:40;;;;;;;23.48;15.77;;;15.50;99.90;;;;;;5012373;28;20054;-83
2023/05/09 03:21:05;;;;;;;23.17;16.20;;;15.40;99.90;;;;;;5013333;28;20045;-84
2023/05/09 03:23:31;;;;;;;21.42;16.48;;;15.50;99.90;;;;;;5013179;28;20022;-84
2023/05/09 03:25:56;;;;;;;24.83;16.85;;;15.50;99.90;;;;;;5012361;28;20936;-83
2023/05/09 03:28:22;;;;;;;24.77;16.05;;;15.60;99.90;;;;;;5013281;28;20374;-83
2023/05/09 03:30:49;;;;;;;23.40;15.93;;;15.60;99.90;;;;;;5012645;28;20042;-83
2023/05/09 03:33:15;;;;;;;20.05;16.02;;;15.70;99.90;;;;;;5012172;28;20466;-83
2023/05/09 03:35:40;;;;;;;21.45;16.58;;;15.60;99.90;;;;;;5012921;28;20029;-83
2023/05/09 03:38:06;;;;;;;21.50;16.63;;;15.70;99.90;;;;;;5013019;28;20362;-82
2023/05/09 03:40:31;;;;;;;20.65;15.70;;;15.60;99.90;;;;;;5012068;28;20523;-83
2023/05/09 03:42:57;;;;;;;19.90;15.50;;;15.50;99.90;;;;;;5012602;28;20450;-83
2023/05/09 03:45:23;;;;;;;23.83;16.25;;;15.50;99.90;;;;;;5012767;28;20424;-83
2023/05/09 03:47:49;;;;;;;24.77;15.73;;;15.50;99.90;;;;;;5011619;28;20027;-84
2023/05/09 03:50:14;;;;;;;21.65;16.30;;;15.50;99.90;;;;;;5012660;28;20151;-84
2023/05/09 03:52:40;;;;;;;17.40;15.48;;;15.50;99.90;;;;;;5012530;28;20018;-83
2023/05/09 03:55:06;;;;;;;21.17;16.55;;;15.50;99.90;;;;;;5011840;28;20026;-83
2023/05/09 03:57:33;;;;;;;28.83;17.15;;;15.50;99.90;;;;;;5012441;28;20028;-84
2023/05/09 03:59:58;;;;;;;23.17;15.38;;;15.50;99.90;;;;;;5012827;28;20156;-84
2023/05/09 04:02:24;;;;;;;25.00;16.65;;;15.50;99.90;;;;;;5012062;28;20053;-83
2023/05/09 04:04:51;;;;;;;26.58;16.67;;;15.50;99.90;;;;;;5012498;28;20363;-84
2023/05/09 04:07:17;;;;;;;22.63;16.02;;;15.60;99.90;;;;;;5011811;28;20033;-83
2023/05/09 04:09:43;;;;;;;22.88;16.00;;;15.60;99.90;;;;;;5012749;28;20030;-84
2023/05/09 04:12:09;;;;;;;24.20;16.80;;;15.60;99.90;;;;;;5013516;28;20036;-84
2023/05/09 04:14:34;;;;;;;24.67;17.50;;;15.50;99.90;;;;;;5015533;28;20528;-83
2023/05/09 04:17:00;;;;;;;20.98;16.27;;;15.40;99.90;;;;;;5016450;28;20548;-83
2023/05/09 04:19:25;;;;;;;19.27;15.45;;;15.40;99.90;;;;;;5016658;28;20381;-83
2023/05/09 04:21:51;;;;;;;23.95;16.65;;;15.40;99.90;;;;;;5015483;28;20045;-84
2023/05/09 04:24:17;;;;;;;19.52;16.05;;;15.40;99.90;;;;;;5016313;28;20026;-84
2023/05/09 04:26:42;;;;;;;21.98;17.13;;;15.40;99.90;;;;;;5015989;28;20112;-84
2023/05/09 04:29:08;;;;;;;22.67;17.50;;;15.30;99.90;;;;;;5015796;28;20056;-83
2023/05/09 04:31:34;;;;;;;22.80;16.48;;;15.40;99.90;;;;;;5015824;28;20022;-84
2023/05/09 04:34:00;;;;;;;20.67;16.20;;;15.40;99.90;;;;;;5016371;28;20037;-84
2023/05/09 04:36:26;;;;;;;22.75;16.15;;;15.40;99.90;;;;;;5015784;28;20030;-83
2023/05/09 04:38:52;;;;;;;25.02;16.77;;;15.50;99.90;;;;;;5015898;28;20026;-83
2023/05/09 04:41:17;;;;;;;26.05;16.42;;;15.40;99.90;;;;;;5016304;28;20414;-83
2023/05/09 04:43:43;;;;;;;26.80;17.63;;;15.40;99.90;;;;;;5015388;28;20049;-83
2023/05/09 04:46:08;;;;;;;23.98;15.13;;;15.40;99.90;;;;;;5015830;28;20502;-83
2023/05/09 04:48:34;;;;;;;23.02;16.73;;;15.40;99.90;;;;;;5015906;28;20433;-83
2023/05/09 04:51:01;;;;;;;24.38;15.07;;;15.30;99.90;;;;;;5015342;28;20026;-84
2023/05/09 04:53:27;;;;;;;26.92;16.20;;;15.30;99.90;;;;;;5015882;28;20030;-83
2023/05/09 04:55:53;;;;;;;22.88;15.40;;;15.30;99.90;;;;;;5015578;28;20041;-84
2023/05/09 04:58:19;;;;;;;25.85;15.73;;;15.60;99.90;;;;;;5015155;28;20022;-83
2023/05/09 05:00:45;;;;;;;20.48;15.45;;;15.40;99.90;;;;;;5015251;28;20040;-83
2023/05/09 05:03:11;;;;;;;20.98;15.32;;;15.30;99.90;;;;;;5015916;28;20033;-84
2023/05/09 05:05:36;;;;;;;28.08;15.60;;;15.30;99.90;;;;;;5014820;28;20026;-83
2023/05/09 05:08:02;;;;;;;23.38;15.57;;;15.20;99.90;;;;;;5015924;28;20465;-84
2023/05/09 05:10:29;;;;;;;25.23;15.93;;;15.30;99.90;;;;;;5014836;28;20495;-83
2023/05/09 05:12:55;;;;;;;24.10;16.05;;;15.20;99.90;;;;;;5015118;28;20041;-84
2023/05/09 05:15:20;;;;;;;25.08;16.40;;;15.30;99.90;;;;;;5015286;28;20018;-83
2023/05/09 05:17:46;;;;;;;21.55;15.90;;;15.30;99.90;;;;;;5014622;28;20062;-83
2023/05/09 05:20:12;;;;;;;20.15;15.27;;;15.30;99.90;;;;;;5015559;28;20018;-84
2023/05/09 05:22:37;;;;;;;22.42;16.23;;;15.20;99.90;;;;;;5014846;28;20030;-83
2023/05/09 05:25:03;;;;;;;23.83;15.95;;;15.30;99.90;;;;;;5014557;28;20026;-83
2023/05/09 05:27:29;;;;;;;22.80;15.27;;;15.40;99.90;;;;;;5015413;28;20056;-83
2023/05/09 05:29:55;;;;;;;20.33;14.85;;;15.30;99.90;;;;;;5014629;28;20478;-83
2023/05/09 05:32:20;;;;;;;23.98;15.75;;;15.40;99.90;;;;;;5014503;28;20053;-83
2023/05/09 05:34:46;;;;;;;22.45;15.50;;;15.20;99.90;;;;;;5014594;28;20029;-83
2023/05/09 05:37:11;;;;;;;22.23;16.27;;;15.10;99.90;;;;;;5014986;28;20029;-83
2023/05/09 05:39:37;;;;;;;21.35;16.05;;;15.80;99.90;;;;;;5013904;28;20109;-85
2023/05/09 05:42:02;;;;;;;21.48;15.05;;;15.10;99.90;;;;;;5014835;28;20042;-83
2023/05/09 05:44:28;;;;;;;23.08;15.10;;;15.10;99.90;;;;;;5015048;28;20034;-85
2023/05/09 05:46:53;;;;;;;29.55;16.48;;;15.20;99.90;;;;;;5013984;28;20026;-84
2023/05/09 05:49:19;;;;;;;22.83;17.27;;;15.10;99.90;;;;;;5015009;28;20101;-84
2023/05/09 05:51:44;;;;;;;24.27;17.20;;;15.10;99.90;;;;;;5014382;28;20056;-84
2023/05/09 05:54:10;;;;;;;28.38;16.80;;;15.10;99.90;;;;;;5014114;28;20145;-83
2023/05/09 05:56:35;;;;;;;19.45;15.95;;;15.20;99.90;;;;;;5014430;28;20026;-84
2023/05/09 05:59:01;;;;;;;26.90;16.65;;;15.20;99.90;;;;;;5014321;28;20065;-84
2023/05/09 06:01:26;;;;;;;28.27;17.08;;;15.20;99.90;;;;;;5014014;28;20038;-84
2023/05/09 06:03:53;;;;;;;21.77;15.55;;;15.20;99.90;;;;;;5014083;28;20038;-84
2023/05/09 06:06:20;;;;;;;23.10;16.60;;;15.40;99.90;;;;;;5014584;28;20029;-84
2023/05/09 06:08:48;;;;;;;23.15;15.40;;;15.50;99.90;;;;;;5013629;28;20025;-84
2023/05/09 06:11:15;;;;;;;22.52;16.05;;;15.60;99.90;;;;;;5014343;28;20045;-84
2023/05/09 06:13:40;;;;;;;21.13;15.30;;;15.50;99.90;;;;;;5013866;28;20037;-84
2023/05/09 06:16:07;;;;;;;20.83;15.50;;;15.50;99.90;;;;;;5013796;28;20030;-84
2023/05/09 06:18:38;;;;;;;22.20;16.17;;;15.60;99.90;;;;;;5014233;28;20431;-84
2023/05/09 06:21:07;;;;;;;22.92;15.93;;;15.60;99.90;;;;;;5013420;28;20219;-84
2023/05/09 06:23:33;;;;;;;21.20;15.45;;;15.50;99.90;;;;;;5014076;28;20029;-84
2023/05/09 06:25:59;;;;;;;18.33;14.85;;;15.60;99.90;;;;;;5013838;28;20497;-84
2023/05/09 06:28:24;;;;;;;17.27;15.15;;;15.60;99.90;;;;;;5013439;28;20049;-84
2023/05/09 06:30:50;;;;;;;18.38;14.23;;;15.60;99.90;;;;;;5013709;28;20429;-84
2023/05/09 06:33:15;;;;;;;19.70;15.07;;;15.60;99.90;;;;;;5014165;28;20030;-84
2023/05/09 06:35:41;;;;;;;20.83;13.98;;;15.60;99.90;;;;;;5012410;28;20478;-84
2023/05/09 06:38:07;;;;;;;22.23;14.93;;;15.60;99.90;;;;;;5013653;28;20496;-84
2023/05/09 06:40:32;;;;;;;21.50;15.82;;;15.60;99.90;;;;;;5013201;28;20026;-84
2023/05/09 06:42:58;;;;;;;15.90;14.32;;;15.60;99.90;;;;;;5012913;28;20058;-84
2023/05/09 06:45:23;;;;;;;18.48;14.80;;;15.70;99.90;;;;;;5013486;28;20053;-84
2023/05/09 06:47:49;;;;;;;19.17;14.70;;;15.70;99.90;;;;;;5013555;28;20034;-84
2023/05/09 06:50:14;;;;;;;21.55;15.80;;;15.60;99.90;;;;;;5013135;28;20040;-84
2023/05/09 06:52:40;;;;;;;24.33;15.95;;;15.60;99.90;;;;;;5013164;28;20026;-84
2023/05/09 06:55:06;;;;;;;22.23;16.42;;;15.60;99.90;;;;;;5013664;28;20026;-84
2023/05/09 06:57:32;;;;;;;18.38;14.32;;;15.50;99.90;;;;;;5012344;28;20157;-84
2023/05/09 06:59:57;;;;;;;18.98;15.23;;;15.60;99.90;;;;;;5013338;28;20065;-84
2023/05/09 07:02:23;;;;;;;20.33;14.88;;;15.60;99.90;;;;;;5013470;28;20041;-84
2023/05/09 07:04:49;;;;;;;21.92;15.05;;;15.60;99.90;;;;;;5012470;28;20017;-84
2023/05/09 07:07:15;;;;;;;17.52;14.13;;;15.70;99.90;;;;;;5013632;28;20033;-84
2023/05/09 07:09:40;;;;;;;18.98;14.82;;;15.80;99.90;;;;;;5012918;28;20026;-84
2023/05/09 07:12:06;;;;;;;20.15;15.30;;;15.70;99.90;;;;;;5012668;28;20045;-84
2023/05/09 07:14:31;;;;;;;15.32;12.93;;;15.80;99.90;;;;;;5013086;28;20022;-84
2023/05/09 07:16:57;;;;;;;17.17;13.23;;;15.70;99.90;;;;;;5013340;28;20497;-84
2023/05/09 07:19:23;;;;;;;16.05;12.85;;;15.60;99.90;;;;;;5012442;28;20021;-84
2023/05/09 07:21:48;;;;;;;15.85;13.13;;;15.60;99.90;;;;;;5012881;28;20034;-84
2023/05/09 07:24:14;;;;;;;15.02;12.93;;;15.60;99.90;;;;;;5012185;28;20029;-84
2023/05/09 07:26:39;;;;;;;18.45;13.25;;;15.70;99.90;;;;;;5012829;28;20018;-84
2023/05/09 07:29:05;;;;;;;14.50;12.85;;;15.70;99.90;;;;;;5013157;28;20101;-84
2023/05/09 07:31:30;;;;;;;15.30;13.75;;;15.50;99.90;;;;;;5012042;28;20477;-84
2023/05/09 07:33:56;;;;;;;18.58;13.68;;;15.50;99.90;;;;;;5012570;28;20030;-84
2023/05/09 07:36:21;;;;;;;14.43;12.98;;;15.40;99.90;;;;;;5012892;28;20492;-84
2023/05/09 07:38:49;;;;;;;18.27;14.18;;;15.40;99.90;;;;;;5011724;28;20022;-84
2023/05/09 07:41:15;;;;;;;17.58;14.45;;;15.30;99.90;;;;;;5012943;28;20153;-84
2023/05/09 07:43:40;;;;;;;16.02;14.10;;;15.40;99.90;;;;;;5012388;28;20058;-84
2023/05/09 07:46:06;;;;;;;22.15;14.75;;;15.40;99.90;;;;;;5012195;28;20024;-84
2023/05/09 07:48:31;;;;;;;18.02;13.80;;;15.30;99.90;;;;;;5012399;28;20022;-84
2023/05/09 07:50:57;;;;;;;16.38;13.65;;;15.30;99.90;;;;;;5012436;28;20041;-84
2023/05/09 07:53:23;;;;;;;19.30;14.05;;;15.30;99.90;;;;;;5011872;28;20030;-83
2023/05/09 07:55:49;;;;;;;15.48;13.68;;;15.30;99.90;;;;;;5012080;28;20054;-83
2023/05/09 07:58:15;;;;;;;14.30;12.82;;;15.40;99.90;;;;;;5012617;28;20108;-84
2023/05/09 08:00:41;;;;;;;14.15;12.77;;;15.40;99.90;;;;;;5011578;28;20037;-84
2023/05/09 08:03:06;;;;;;;14.00;12.60;;;15.30;99.90;;;;;;5012425;28;20026;-84
2023/05/09 08:05:32;;;;;;;16.15;13.50;;;15.30;99.90;;;;;;5012350;28;20029;-84
2023/05/09 08:07:58;;;;;;;17.10;13.35;;;15.30;99.90;;;;;;5011972;28;20109;-84
2023/05/09 08:10:23;;;;;;;15.00;13.43;;;15.40;99.90;;;;;;5012273;28;20540;-84
2023/05/09 08:12:50;;;;;;;18.30;13.07;;;15.30;99.90;;;;;;5012130;28;20048;-84
2023/05/09 08:15:15;;;;;;;14.40;12.60;;;15.30;99.90;;;;;;5011841;28;20470;-84
2023/05/09 08:17:41;;;;;;;14.27;12.77;;;15.30;99.90;;;;;;5012311;28;20109;-84
2023/05/09 08:20:07;;;;;;;13.95;12.50;;;15.40;99.90;;;;;;5012522;28;20465;-84
2023/05/09 08:22:33;;;;;;;15.05;13.52;;;15.50;99.90;;;;;;5011619;28;20026;-84
2023/05/09 08:24:59;;;;;;;13.35;12.05;;;15.40;99.90;;;;;;5012326;28;20018;-84
2023/05/09 08:27:25;;;;;;;14.75;13.25;;;15.40;99.90;;;;;;5011676;28;20037;-84
2023/05/09 08:29:50;;;;;;;12.25;11.10;;;15.40;99.90;;;;;;5011938;28;20045;-84
2023/05/09 08:32:16;;;;;;;12.45;11.25;;;15.40;99.90;;;;;;5012345;28;20071;-84
2023/05/09 08:34:42;;;;;;;13.73;11.40;;;15.30;99.90;;;;;;5011153;28;20441;-84
2023/05/09 08:37:07;;;;;;;11.65;10.60;;;15.30;99.90;;;;;;5012428;28;20046;-84
2023/05/09 08:39:36;;;;;;;13.73;11.90;;;15.30;99.90;;;;;;5012117;28;20404;-83
2023/05/09 08:42:01;;;;;;;13.25;11.30;;;15.30;99.90;;;;;;5011311;28;20078;-84
2023/05/09 08:44:29;;;;;;;11.38;10.23;;;15.30;99.90;;;;;;5012425;28;20426;-84
2023/05/09 08:46:58;;;;;;;13.30;11.18;;;15.20;99.90;;;;;;5012014;28;20025;-84
2023/05/09 08:49:24;;;;;;;15.55;10.00;;;15.20;99.90;;;;;;5011327;28;20101;-84
2023/05/09 08:51:50;;;;;;;11.07;9.68;;;15.20;99.90;;;;;;5011608;28;20033;-84
2023/05/09 08:54:17;;;;;;;10.25;9.27;;;15.30;99.90;;;;;;5011968;28;20030;-84
2023/05/09 08:56:42;;;;;;;9.93;8.93;;;15.30;99.90;;;;;;5011174;28;20033;-84
2023/05/09 08:59:09;;;;;;;9.85;8.95;;;15.30;99.90;;;;;;5015085;28;20104;-84
2023/05/09 09:01:34;;;;;;;11.00;10.07;;;15.30;99.90;;;;;;5015970;28;20038;-84
2023/05/09 09:04:04;;;;;;;10.15;9.02;;;15.20;99.90;;;;;;5015208;28;20054;-84
2023/05/09 09:06:33;;;;;;;11.85;9.50;;;15.40;99.90;;;;;;5015863;28;20033;-83
2023/05/09 09:08:59;;;;;;;10.77;9.70;;;15.80;99.90;;;;;;5015811;28;20053;-84
2023/05/09 09:11:29;;;;;;;10.00;9.10;;;15.50;99.90;;;;;;5014962;28;20140;-84
2023/05/09 09:13:59;;;;;;;10.23;9.23;;;15.40;99.90;;;;;;5015022;28;20101;-84
2023/05/09 09:16:27;;;;;;;9.57;8.68;;;15.50;99.90;;;;;;5015712;28;20034;-84
2023/05/09 09:18:55;;;;;;;9.05;8.25;;;15.50;99.90;;;;;;5014201;28;20097;-84
2023/05/09 09:21:22;;;;;;;10.20;9.20;;;15.50;99.90;;;;;;5015574;28;20437;-84
2023/05/09 09:23:48;;;;;;;9.55;8.48;;;15.50;99.90;;;;;;5014081;28;20033;-84
2023/05/09 09:26:14;;;;;;;10.55;9.63;;;15.50;99.90;;;;;;5015437;28;20029;-84
2023/05/09 09:28:41;;;;;;;10.07;9.05;;;15.50;99.90;;;;;;5014965;28;20112;-84
2023/05/09 09:31:27;;;;;;;11.93;9.77;;;15.50;99.90;;;;;;5014429;28;20026;-84
2023/05/09 09:33:59;;;;;;;11.38;9.00;;;15.40;99.90;;;;;;5016147;28;20045;-84
2023/05/09 09:36:35;;;;;;;13.50;9.85;;;15.40;99.90;;;;;;5015382;28;20092;-84
2023/05/09 09:39:05;;;;;;;10.35;9.38;;;15.40;99.90;;;;;;5014627;28;20045;-84
2023/05/09 09:41:37;;;;;;;;;;;15.40;99.90;;;;;;5015658;28;20088;-84
2023/05/09 09:44:10;;;;;;;11.10;9.85;;;15.30;99.90;;;;;;5014756;28;19948;-84
2023/05/09 09:47:02;;;;;;;10.55;9.57;;;15.30;99.90;;;;;;5014771;28;20113;-84
2023/05/09 09:49:28;;;;;;;11.50;10.05;;;15.30;99.90;;;;;;5014108;28;20126;-84
2023/05/09 09:51:55;;;;;;;10.45;9.45;;;15.30;99.90;;;;;;5013962;28;20108;-84
2023/05/09 09:54:21;;;;;;;11.02;9.40;;;15.40;99.90;;;;;;5014854;28;20022;-84
2023/05/09 09:56:53;;;;;;;16.08;10.05;;;15.40;99.90;;;;;;5014358;28;20101;-84
2023/05/09 09:59:24;;;;;;;9.77;8.88;;;15.40;99.90;;;;;;5014213;28;20037;-84
2023/05/09 10:02:00;;;;;;;14.10;9.82;;;15.50;99.90;;;;;;5014282;28;20073;-84
2023/05/09 10:04:30;;;;;;;9.32;8.43;;;15.40;99.90;;;;;;5014884;28;20029;-84
2023/05/09 10:07:07;;;;;;;11.80;9.52;;;15.50;99.90;;;;;;5013288;28;20092;-84
2023/05/09 10:09:34;;;;;;;10.13;9.15;;;15.40;99.90;;;;;;5013230;28;20033;-83
2023/05/09 10:12:05;;;;;;;13.50;8.93;;;15.50;99.90;;;;;;5014442;28;20318;-84
2023/05/09 10:14:33;;;;;;;10.10;9.13;;;15.50;99.90;;;;;;5013716;28;20097;-84
2023/05/09 10:17:00;;;;;;;12.32;8.48;;;15.50;99.90;;;;;;5014043;28;20474;-84
2023/05/09 10:19:28;;;;;;;9.55;8.77;;;16.10;99.90;;;;;;5014116;28;20120;-84
2023/05/09 10:22:01;;;;;;;11.57;9.40;;;15.60;99.90;;;;;;5013248;28;20045;-84
2023/05/09 10:24:38;;;;;;;10.27;9.25;;;15.60;99.90;;;;;;5014092;28;20512;-84
2023/05/09 10:27:08;;;;;;;13.23;9.15;;;15.70;99.90;;;;;;5013441;28;20116;-84
2023/05/09 10:29:43;;;;;;;9.57;8.73;;;15.70;99.90;;;;;;5014033;28;20044;-84
2023/05/09 10:32:22;;;;;;;10.05;9.25;;;15.70;99.90;;;;;;5014126;28;20037;-84
2023/05/09 10:34:50;;;;;;;10.48;9.27;;;15.60;99.90;;;;;;5013061;28;20041;-84
2023/05/09 10:37:16;;;;;;;9.75;8.73;;;15.60;99.90;;;;;;5013648;28;20049;-84
2023/05/09 10:39:43;;;;;;;11.02;10.05;;;15.60;99.90;;;;;;5013721;28;20120;-84
2023/05/09 10:42:11;;;;;;;10.30;9.50;;;15.80;99.90;;;;;;5012880;28;20129;-84
2023/05/09 10:44:37;;;;;;;9.35;8.65;;;15.70;99.90;;;;;;5013867;28;20433;-84
2023/05/09 10:47:03;;;;;;;10.23;9.20;;;15.70;99.90;;;;;;5013612;28;20053;-84
2023/05/09 10:49:29;;;;;;;12.23;9.15;;;15.70;99.90;;;;;;5012955;28;20080;-84
2023/05/09 10:51:55;;;;;;;9.65;8.77;;;15.70;99.90;;;;;;5013401;28;20034;-84
2023/05/09 10:54:28;;;;;;;11.07;9.77;;;15.70;99.90;;;;;;5013662;28;20036;-84
2023/05/09 10:56:55;;;;;;;10.05;9.07;;;15.80;99.90;;;;;;5012490;28;20022;-84
2023/05/09 10:59:39;;;;;;;10.50;9.60;;;15.80;99.90;;;;;;5013785;28;20053;-84
2023/05/09 11:02:10;;;;;;;9.85;8.85;;;15.80;99.90;;;;;;5013077;28;20061;-84
2023/05/09 11:04:38;;;;;;;11.10;9.90;;;15.80;99.90;;;;;;5013193;28;20029;-83
2023/05/09 11:07:22;;;;;;;9.82;8.95;;;15.90;99.90;;;;;;5013343;28;20022;-84
2023/05/09 11:10:08;;;;;;;10.27;9.43;;;15.90;99.90;;;;;;5012261;28;20030;-83
2023/05/09 11:12:33;;;;;;;10.35;9.45;;;15.80;99.90;;;;;;5012889;28;20113;-84
2023/05/09 11:15:06;;;;;;;11.32;10.10;;;15.80;99.90;;;;;;5013436;28;20153;-83
2023/05/09 11:17:37;;;;;;;10.50;9.50;;;15.90;99.90;;;;;;5012224;28;20029;-84
2023/05/09 11:20:07;;;;;;;10.95;10.05;;;15.90;99.90;;;;;;5013369;28;20036;-83
2023/05/09 11:22:41;;;;;;;9.63;8.73;;;15.90;99.90;;;;;;5012730;28;20042;-84
2023/05/09 11:25:12;;;;;;;8.52;7.72;;;15.90;99.90;;;;;;5012489;28;20026;-84
2023/05/09 11:27:42;;;;;;;8.75;8.05;;;15.90;99.90;;;;;;5012641;28;20032;-83
2023/05/09 11:30:09;;;;;;;8.68;7.63;;;15.90;99.90;;;;;;5012916;28;20038;-84
2023/05/09 11:32:46;;;;;;;7.97;7.35;;;15.90;99.90;;;;;;5012201;28;20037;-84
2023/05/09 11:35:15;;;;;;;8.77;7.95;;;15.90;99.90;;;;;;5013130;28;20125;-84
2023/05/09 11:37:54;;;;;;;10.23;9.38;;;15.90;99.90;;;;;;5011855;28;20053;-84
2023/05/09 11:40:20;;;;;;;9.45;8.65;;;15.90;99.90;;;;;;5013004;28;20050;-84
2023/05/09 11:42:48;;;;;;;10.65;9.65;;;15.90;99.90;;;;;;5012172;28;20551;-84
2023/05/09 11:45:15;;;;;;;10.63;9.70;;;16.40;99.90;;;;;;5012420;28;20033;-83
2023/05/09 11:47:40;;;;;;;10.02;9.13;;;15.80;99.90;;;;;;5012344;28;20105;-83
2023/05/09 11:50:11;;;;;;;12.57;11.25;;;15.90;99.90;;;;;;5012846;28;20117;-83
2023/05/09 11:52:37;;;;;;;9.68;8.80;;;15.90;99.90;;;;;;5011660;28;20057;-84
2023/05/09 11:55:08;;;;;;;10.27;8.80;;;16.10;99.90;;;;;;5012719;28;20025;-84
2023/05/09 11:57:35;;;;;;;9.60;8.73;;;15.80;99.90;;;;;;5012521;28;20034;-84
2023/05/09 12:00:03;;;;;;;10.00;8.75;;;15.80;99.90;;;;;;5011833;28;20490;-84
2023/05/09 12:02:29;;;;;;;9.32;8.48;;;15.80;99.90;;;;;;5012374;28;20541;-84
2023/05/09 12:04:54;;;;;;;9.57;8.77;;;15.80;99.90;;;;;;5012313;28;20026;-84
2023/05/09 12:07:20;;;;;;;9.32;8.63;;;15.70;99.90;;;;;;5011718;28;20401;-84
2023/05/09 12:09:48;;;;;;;8.98;8.18;;;15.70;99.90;;;;;;5012312;28;20359;-84
2023/05/09 12:12:16;;;;;;;9.13;8.27;;;15.70;99.90;;;;;;5012277;28;20499;-83
2023/05/09 12:14:42;;;;;;;10.82;9.50;;;16.50;99.90;;;;;;5011801;28;20034;-84
2023/05/09 12:17:08;;;;;;;9.32;8.43;;;15.70;99.90;;;;;;5012370;28;20022;-83
2023/05/09 12:19:35;;;;;;;9.43;8.52;;;15.70;99.90;;;;;;5011297;28;20386;-84
2023/05/09 12:22:02;;;;;;;8.65;8.05;;;15.70;99.90;;;;;;5012593;28;20117;-84
2023/05/09 12:24:29;;;;;;;9.80;9.00;;;15.70;99.90;;;;;;5012384;28;20063;-83
2023/05/09 12:26:56;;;;;;;9.35;8.55;;;15.70;99.90;;;;;;5011459;28;20029;-83
2023/05/09 12:29:22;;;;;;;8.93;8.23;;;15.70;99.90;;;;;;5012407;28;20026;-83
2023/05/09 12:31:48;;;;;;;8.70;7.93;;;15.70;99.90;;;;;;5011858;28;20029;-84